Time;durP1;ratioP1;P1;durP2;ratioP2;P2;SDS_P1;SDS_P2;PMS_P1;PMS_P2;Temp;Humidity;BMP_temperature;BMP_pressure;BME280_temperature;BME280_humidity;BME280_pressure;Samples;Min_cycle;Max_cycle;Signal;HPM_P1;HPM_P2
2021/03/11 00:00:06;;;;;;;15.70;8.85;;;7.80;72.00;;;;;;5070078;28;20083;-77
2021/03/11 00:02:33;;;;;;;15.75;9.65;;;7.80;72.50;;;;;;5069859;28;20080;-77
2021/03/11 00:05:00;;;;;;;15.88;9.80;;;7.80;72.90;;;;;;5068958;28;20131;-78
2021/03/11 00:07:26;;;;;;;14.23;8.52;;;7.80;73.50;;;;;;5069631;28;20125;-77
2021/03/11 00:09:53;;;;;;;14.43;8.73;;;7.80;73.00;;;;;;5069152;28;20087;-78
2021/03/11 00:12:20;;;;;;;13.90;8.55;;;7.80;74.10;;;;;;5069896;28;20087;-78
2021/03/11 00:14:47;;;;;;;13.85;8.13;;;7.80;73.40;;;;;;5067881;28;20131;-78
2021/03/11 00:17:14;;;;;;;13.13;7.80;;;7.90;71.90;;;;;;5069933;28;20072;-78
2021/03/11 00:19:40;;;;;;;12.70;7.32;;;7.90;70.80;;;;;;5069268;28;20474;-77
2021/03/11 00:22:07;;;;;;;11.20;7.43;;;8.00;70.40;;;;;;5069389;28;20132;-77
2021/03/11 00:24:34;;;;;;;14.68;7.40;;;8.10;70.00;;;;;;5068959;28;20062;-77
2021/03/11 00:27:00;;;;;;;12.48;7.50;;;8.20;69.50;;;;;;5070201;28;20102;-77
2021/03/11 00:29:28;;;;;;;11.60;7.53;;;8.30;69.50;;;;;;5069554;28;20163;-76
2021/03/11 00:31:56;;;;;;;14.20;7.50;;;8.30;68.90;;;;;;5069437;28;20044;-78
2021/03/11 00:34:22;;;;;;;14.57;8.77;;;8.40;68.50;;;;;;5069218;28;20083;-77
2021/03/11 00:36:50;;;;;;;14.23;8.20;;;8.50;68.50;;;;;;5068252;28;20139;-77
2021/03/11 00:39:17;;;;;;;15.10;9.32;;;8.40;68.90;;;;;;5069342;28;20481;-77
2021/03/11 00:41:45;;;;;;;13.68;8.73;;;8.50;69.60;;;;;;5068895;28;20155;-77
2021/03/11 00:44:11;;;;;;;14.38;9.25;;;8.50;70.00;;;;;;5068843;28;20068;-78
2021/03/11 00:46:38;;;;;;;12.73;8.18;;;8.50;70.50;;;;;;5068892;28;20131;-77
2021/03/11 00:49:05;;;;;;;15.10;8.80;;;8.50;71.10;;;;;;5068627;28;20135;-78
2021/03/11 00:51:32;;;;;;;13.40;8.38;;;8.40;71.70;;;;;;5084684;28;20135;-78
2021/03/11 00:53:59;;;;;;;13.93;8.43;;;8.40;72.10;;;;;;5072010;28;20516;-78
2021/03/11 00:56:25;;;;;;;12.75;8.27;;;8.40;72.00;;;;;;5081530;28;20136;-78
2021/03/11 00:58:52;;;;;;;12.77;7.32;;;8.50;71.70;;;;;;5069446;28;20494;-78
2021/03/11 01:01:19;;;;;;;14.20;8.13;;;8.50;71.40;;;;;;5068539;28;20052;-78
2021/03/11 01:03:45;;;;;;;15.48;8.38;;;8.50;71.20;;;;;;5068645;28;20139;-78
2021/03/11 01:06:13;;;;;;;12.70;8.40;;;8.50;71.10;;;;;;5068679;28;20127;-78
2021/03/11 01:08:39;;;;;;;15.18;8.15;;;8.50;70.30;;;;;;5068633;28;20561;-79
2021/03/11 01:11:06;;;;;;;14.00;9.30;;;8.50;70.30;;;;;;5069068;28;20123;-79
2021/03/11 01:13:33;;;;;;;17.60;10.30;;;8.50;70.70;;;;;;5069002;28;20607;-78
2021/03/11 01:15:59;;;;;;;15.73;8.93;;;8.40;71.00;;;;;;5068258;28;20139;-79
2021/03/11 01:18:27;;;;;;;15.57;9.40;;;8.40;71.70;;;;;;5069079;28;20135;-79
2021/03/11 01:20:53;;;;;;;14.75;8.70;;;8.40;72.50;;;;;;5068459;28;20135;-79
2021/03/11 01:23:21;;;;;;;14.55;9.48;;;8.30;71.60;;;;;;5068151;28;20110;-78
2021/03/11 01:25:47;;;;;;;15.32;9.50;;;8.20;72.00;;;;;;5068996;28;20141;-80
2021/03/11 01:28:14;;;;;;;14.18;8.57;;;8.10;71.90;;;;;;5068731;28;20561;-79
2021/03/11 01:30:41;;;;;;;15.55;9.07;;;8.10;71.80;;;;;;5068640;28;20339;-79
2021/03/11 01:33:07;;;;;;;13.98;7.80;;;8.10;72.20;;;;;;5068803;28;20128;-79
2021/03/11 01:35:34;;;;;;;14.18;8.80;;;8.10;68.90;;;;;;5068538;28;20515;-78
2021/03/11 01:38:00;;;;;;;13.52;7.78;;;8.20;69.00;;;;;;5068505;28;20779;-80
2021/03/11 01:40:28;;;;;;;12.35;7.30;;;8.20;69.90;;;;;;5068349;28;20119;-80
2021/03/11 01:42:55;;;;;;;11.88;7.25;;;8.20;69.70;;;;;;5068964;28;20091;-79
2021/03/11 01:45:22;;;;;;;14.10;7.05;;;8.20;68.80;;;;;;5069466;28;20056;-79
2021/03/11 01:47:49;;;;;;;11.82;7.38;;;8.30;68.10;;;;;;5068545;28;20059;-78
2021/03/11 01:50:15;;;;;;;13.23;7.75;;;8.30;68.30;;;;;;5068488;28;20139;-78
2021/03/11 01:52:42;;;;;;;12.95;7.35;;;8.30;67.20;;;;;;5068724;28;20194;-78
2021/03/11 01:55:11;;;;;;;13.80;8.38;;;8.30;67.00;;;;;;5067507;28;20045;-77
2021/03/11 01:57:38;;;;;;;13.40;7.80;;;8.40;66.20;;;;;;5071451;28;20123;-79
2021/03/11 02:00:08;;;;;;;13.52;7.63;;;8.40;66.00;;;;;;5072255;28;20476;-79
2021/03/11 02:02:36;;;;;;;12.60;6.97;;;8.50;65.70;;;;;;5070102;28;20052;-79
2021/03/11 02:05:05;;;;;;;10.77;6.85;;;8.60;65.50;;;;;;5069888;28;20084;-78
2021/03/11 02:07:32;;;;;;;9.82;6.38;;;8.50;65.30;;;;;;5071210;28;20078;-79
2021/03/11 02:09:59;;;;;;;11.20;6.45;;;8.60;65.00;;;;;;5071421;28;20183;-79
2021/03/11 02:12:37;;;;;;;10.95;6.35;;;8.60;64.60;;;;;;5072074;28;20127;-78
2021/03/11 02:15:09;;;;;;;10.45;5.57;;;8.70;64.30;;;;;;5070991;28;20069;-78
2021/03/11 02:17:41;;;;;;;8.90;5.45;;;8.70;63.80;;;;;;5070777;28;20076;-78
2021/03/11 02:20:47;;;;;;;10.73;5.88;;;8.80;63.90;;;;;;5065757;28;20047;-79
2021/03/11 02:24:04;;;;;;;10.38;6.07;;;8.90;63.70;;;;;;5061153;28;20524;-80
2021/03/11 02:27:13;;;;;;;9.20;5.40;;;9.00;62.60;;;;;;5032842;28;20114;-79
2021/03/11 02:29:44;;;;;;;8.90;5.10;;;9.00;62.40;;;;;;5032752;28;20084;-78
2021/03/11 02:32:13;;;;;;;9.30;5.90;;;9.10;61.80;;;;;;5071603;28;20127;-79
2021/03/11 02:34:48;;;;;;;8.90;5.55;;;9.20;62.00;;;;;;5071583;28;20055;-78
2021/03/11 02:37:24;;;;;;;10.02;5.30;;;9.20;61.70;;;;;;5056960;28;20139;-79
2021/03/11 02:39:56;;;;;;;8.77;5.28;;;9.20;61.40;;;;;;5071120;28;20131;-79
2021/03/11 02:42:25;;;;;;;9.57;5.30;;;9.20;61.10;;;;;;5071432;28;20135;-78
2021/03/11 02:44:54;;;;;;;9.93;5.70;;;9.30;60.90;;;;;;5071199;28;20095;-78
2021/03/11 02:47:22;;;;;;;8.00;5.00;;;9.40;60.60;;;;;;5071181;28;20128;-77
2021/03/11 02:49:51;;;;;;;9.93;5.28;;;9.40;60.50;;;;;;5071510;28;20458;-79
2021/03/11 02:52:19;;;;;;;8.80;4.95;;;9.40;60.60;;;;;;5071412;28;20079;-80
2021/03/11 02:54:47;;;;;;;7.22;4.18;;;9.40;60.50;;;;;;5070883;28;20481;-79
2021/03/11 02:57:18;;;;;;;9.52;4.15;;;9.50;61.00;;;;;;5071280;28;20075;-79
2021/03/11 02:59:46;;;;;;;7.38;4.07;;;9.50;60.00;;;;;;5070437;28;20517;-78
2021/03/11 03:02:15;;;;;;;8.05;4.20;;;9.50;59.80;;;;;;5074078;28;20140;-78
2021/03/11 03:04:46;;;;;;;7.25;4.30;;;9.50;59.50;;;;;;5074640;28;20048;-78
2021/03/11 03:07:16;;;;;;;8.15;4.00;;;9.50;59.40;;;;;;5074360;28;20502;-79
2021/03/11 03:09:45;;;;;;;6.32;3.58;;;9.50;59.50;;;;;;5075307;28;20056;-79
2021/03/11 03:12:12;;;;;;;6.88;3.30;;;9.70;59.20;;;;;;5074417;28;20131;-79
2021/03/11 03:14:40;;;;;;;6.13;3.38;;;9.70;59.20;;;;;;5071476;28;20609;-79
2021/03/11 03:17:09;;;;;;;7.18;3.20;;;9.70;58.90;;;;;;5058853;28;20182;-78
2021/03/11 03:19:38;;;;;;;5.35;2.78;;;9.70;59.00;;;;;;5074888;28;20127;-79
2021/03/11 03:22:06;;;;;;;6.00;3.00;;;9.70;59.20;;;;;;5073835;28;20048;-77
2021/03/11 03:24:33;;;;;;;6.55;2.70;;;9.70;59.10;;;;;;5074465;28;20095;-78
2021/03/11 03:27:00;;;;;;;6.82;3.42;;;9.80;59.10;;;;;;5074261;28;20139;-78
2021/03/11 03:29:27;;;;;;;5.72;3.13;;;9.80;58.80;;;;;;5074202;28;20131;-79
2021/03/11 03:31:53;;;;;;;5.10;2.83;;;9.80;59.30;;;;;;5074319;28;20076;-79
2021/03/11 03:34:20;;;;;;;6.50;3.13;;;9.90;58.70;;;;;;5074043;28;20080;-78
2021/03/11 03:36:48;;;;;;;5.50;2.67;;;9.90;59.10;;;;;;5073747;28;20537;-79
2021/03/11 03:39:14;;;;;;;6.68;2.90;;;9.90;59.20;;;;;;5074101;28;20131;-79
2021/03/11 03:41:48;;;;;;;8.38;3.40;;;9.80;60.00;;;;;;5074036;28;20159;-78
2021/03/11 03:44:18;;;;;;;6.20;2.88;;;9.90;59.10;;;;;;5073749;28;20500;-79
2021/03/11 03:46:47;;;;;;;6.78;3.10;;;9.90;58.90;;;;;;5074287;28;20049;-78
2021/03/11 03:49:14;;;;;;;6.80;3.00;;;10.00;59.10;;;;;;5073892;28;20083;-78
2021/03/11 03:51:48;;;;;;;4.97;2.70;;;10.00;58.90;;;;;;5074117;28;20529;-78
2021/03/11 03:54:21;;;;;;;5.05;2.70;;;10.00;58.70;;;;;;5059285;28;20076;-79
2021/03/11 03:56:52;;;;;;;7.07;3.05;;;10.10;58.60;;;;;;5073983;28;20064;-79
2021/03/11 03:59:23;;;;;;;6.32;3.40;;;10.10;58.90;;;;;;5073774;28;20059;-78
2021/03/11 04:01:56;;;;;;;4.90;2.42;;;10.10;58.80;;;;;;5072607;28;20143;-79
2021/03/11 04:04:25;;;;;;;5.15;2.70;;;10.20;58.90;;;;;;5070511;28;20493;-78
2021/03/11 04:06:54;;;;;;;4.90;2.70;;;10.30;58.90;;;;;;5071298;28;20139;-77
2021/03/11 04:09:23;;;;;;;5.07;2.63;;;10.30;59.10;;;;;;5070287;28;20076;-77
2021/03/11 04:11:50;;;;;;;6.57;2.95;;;10.40;58.90;;;;;;5079896;28;20140;-77
2021/03/11 04:14:18;;;;;;;5.63;2.78;;;10.50;58.60;;;;;;5085278;28;20072;-78
2021/03/11 04:16:47;;;;;;;5.50;2.85;;;10.60;58.30;;;;;;5070158;28;20159;-80
2021/03/11 04:19:15;;;;;;;6.78;3.33;;;10.60;58.40;;;;;;5069366;28;20045;-78
2021/03/11 04:21:43;;;;;;;6.97;3.47;;;10.60;58.30;;;;;;5070096;28;20094;-79
2021/03/11 04:24:12;;;;;;;5.63;2.88;;;10.70;58.00;;;;;;5054290;28;20049;-79
2021/03/11 04:26:40;;;;;;;7.15;3.28;;;10.80;58.00;;;;;;5069379;28;20127;-78
2021/03/11 04:29:07;;;;;;;6.25;3.17;;;10.70;58.10;;;;;;5069757;28;20482;-78
2021/03/11 04:31:35;;;;;;;7.13;3.15;;;10.70;58.20;;;;;;5069847;28;20080;-79
2021/03/11 04:34:02;;;;;;;6.35;3.28;;;10.80;58.30;;;;;;5069666;28;20084;-80
2021/03/11 04:36:30;;;;;;;6.38;2.83;;;10.70;58.60;;;;;;5070134;28;20127;-79
2021/03/11 04:38:57;;;;;;;7.60;3.17;;;10.70;58.90;;;;;;5069657;28;20139;-79
2021/03/11 04:41:25;;;;;;;5.97;2.90;;;10.80;59.20;;;;;;5069781;28;20142;-79
2021/03/11 04:43:53;;;;;;;6.32;2.72;;;10.80;58.70;;;;;;5069950;28;20405;-79
2021/03/11 04:46:21;;;;;;;6.95;3.47;;;10.80;59.80;;;;;;5070534;28;20105;-80
2021/03/11 04:48:48;;;;;;;6.95;3.28;;;10.80;59.00;;;;;;5069290;28;20428;-80
2021/03/11 04:51:16;;;;;;;7.05;3.17;;;10.90;59.50;;;;;;5070503;28;20136;-80
2021/03/11 04:53:44;;;;;;;5.28;2.67;;;10.80;59.30;;;;;;5070466;28;20158;-83
2021/03/11 04:56:12;;;;;;;6.55;2.70;;;10.80;60.50;;;;;;5071293;28;20151;-82
2021/03/11 04:58:41;;;;;;;5.50;2.97;;;10.80;61.50;;;;;;5070101;28;20170;-82
2021/03/11 05:01:11;;;;;;;6.07;2.67;;;10.90;62.70;;;;;;5070640;28;20135;-83
2021/03/11 05:03:41;;;;;;;5.97;2.70;;;10.90;63.20;;;;;;5071296;28;20066;-82
2021/03/11 05:06:09;;;;;;;5.50;3.10;;;10.90;63.50;;;;;;5054622;28;20487;-84
2021/03/11 05:08:35;;;;;;;5.88;2.97;;;10.90;63.60;;;;;;5071537;28;20477;-83
2021/03/11 05:11:02;;;;;;;7.93;3.08;;;10.90;63.60;;;;;;5078754;28;20109;-83
2021/03/11 05:13:30;;;;;;;8.00;3.20;;;10.90;63.20;;;;;;5077761;28;20093;-82
2021/03/11 05:15:58;;;;;;;7.13;3.60;;;10.80;63.10;;;;;;5070193;28;20871;-83
2021/03/11 05:18:25;;;;;;;6.82;3.67;;;10.90;62.80;;;;;;5070279;28;20063;-80
2021/03/11 05:20:52;;;;;;;6.75;3.45;;;11.00;63.40;;;;;;5070558;28;20632;-82
2021/03/11 05:23:19;;;;;;;8.73;3.58;;;10.90;63.20;;;;;;5073975;28;20199;-90
2021/03/11 05:25:46;;;;;;;5.57;3.22;;;10.90;63.30;;;;;;5072462;28;20135;-79
2021/03/11 05:28:13;;;;;;;5.35;2.90;;;10.90;63.80;;;;;;5057828;28;20064;-80
2021/03/11 05:30:40;;;;;;;8.05;3.75;;;10.80;64.40;;;;;;5072224;28;20131;-80
2021/03/11 05:33:07;;;;;;;5.40;2.67;;;10.90;65.00;;;;;;5052495;28;20077;-79
2021/03/11 05:35:35;;;;;;;6.28;3.40;;;10.90;65.50;;;;;;5054904;28;20131;-79
2021/03/11 05:38:02;;;;;;;5.63;3.03;;;10.80;65.70;;;;;;5054870;28;20147;-78
2021/03/11 05:40:30;;;;;;;5.55;2.60;;;10.90;66.60;;;;;;5054911;28;20052;-79
2021/03/11 05:42:59;;;;;;;5.00;2.80;;;10.90;67.40;;;;;;5054509;28;20091;-79
2021/03/11 05:45:27;;;;;;;5.35;2.63;;;10.80;68.10;;;;;;5073168;28;20132;-79
2021/03/11 05:47:54;;;;;;;5.05;2.70;;;10.90;68.90;;;;;;5074294;28;20139;-79
2021/03/11 05:50:22;;;;;;;4.18;2.30;;;11.00;69.70;;;;;;5074629;28;20476;-79
2021/03/11 05:52:51;;;;;;;6.90;2.67;;;10.90;70.10;;;;;;5074475;28;20087;-79
2021/03/11 05:55:18;;;;;;;5.05;2.50;;;11.00;70.50;;;;;;5073795;28;20135;-78
2021/03/11 05:57:46;;;;;;;5.65;2.70;;;11.00;70.90;;;;;;5074159;28;20049;-79
2021/03/11 06:00:15;;;;;;;5.38;2.42;;;11.00;71.40;;;;;;5073803;28;20136;-79
2021/03/11 06:02:44;;;;;;;5.25;2.65;;;11.00;72.00;;;;;;5074145;28;20568;-79
2021/03/11 06:05:13;;;;;;;4.28;2.20;;;11.00;72.30;;;;;;5073986;28;20078;-79
2021/03/11 06:07:45;;;;;;;4.85;2.20;;;11.00;72.70;;;;;;5073478;28;20142;-78
2021/03/11 06:10:12;;;;;;;5.47;2.33;;;11.00;73.00;;;;;;5074141;28;20056;-79
2021/03/11 06:12:40;;;;;;;4.43;2.22;;;11.00;73.30;;;;;;5074024;28;20135;-79
2021/03/11 06:15:12;;;;;;;5.13;2.30;;;11.00;73.90;;;;;;5074038;28;20056;-78
2021/03/11 06:17:40;;;;;;;5.40;2.38;;;11.00;74.00;;;;;;5074172;28;20044;-78
2021/03/11 06:20:10;;;;;;;4.15;2.15;;;11.00;74.40;;;;;;5073953;28;20136;-79
2021/03/11 06:22:37;;;;;;;6.30;2.65;;;11.00;75.10;;;;;;5072894;28;20560;-78
2021/03/11 06:25:06;;;;;;;4.97;2.22;;;11.00;75.30;;;;;;5073695;28;20577;-78
2021/03/11 06:27:33;;;;;;;5.20;2.30;;;11.00;75.60;;;;;;5073785;28;20092;-78
2021/03/11 06:30:00;;;;;;;5.28;2.40;;;11.10;75.80;;;;;;5073823;28;20123;-78
2021/03/11 06:32:28;;;;;;;5.05;2.55;;;11.00;76.00;;;;;;5073505;28;20052;-77
2021/03/11 06:34:55;;;;;;;6.47;2.28;;;11.00;76.60;;;;;;5073204;28;20048;-78
2021/03/11 06:37:37;;;;;;;5.03;2.47;;;11.00;76.80;;;;;;5073075;28;20131;-77
2021/03/11 06:40:17;;;;;;;6.32;2.53;;;11.10;77.60;;;;;;5073562;28;20545;-79
2021/03/11 06:42:44;;;;;;;4.90;2.20;;;11.00;77.80;;;;;;5072800;28;20462;-78
2021/03/11 06:45:26;;;;;;;3.80;1.90;;;11.10;78.10;;;;;;5073267;28;20469;-79
2021/03/11 06:48:14;;;;;;;4.95;2.50;;;11.10;78.40;;;;;;5073557;28;20135;-78
2021/03/11 06:50:41;;;;;;;6.72;2.13;;;11.10;78.60;;;;;;5072753;28;20410;-78
2021/03/11 06:53:07;;;;;;;3.83;2.00;;;11.20;78.70;;;;;;5073023;28;20079;-77
2021/03/11 06:55:35;;;;;;;4.85;2.00;;;11.10;79.00;;;;;;5073060;28;20127;-78
2021/03/11 06:58:18;;;;;;;4.03;1.92;;;11.10;78.80;;;;;;5073217;28;20123;-79
2021/03/11 07:00:47;;;;;;;4.25;2.20;;;11.10;79.30;;;;;;5071292;28;20144;-78
2021/03/11 07:03:13;;;;;;;6.05;2.08;;;11.20;79.20;;;;;;5072829;28;20087;-78
2021/03/11 07:05:43;;;;;;;5.00;2.08;;;11.20;78.90;;;;;;5073307;28;20143;-78
2021/03/11 07:08:13;;;;;;;7.20;2.30;;;11.30;79.00;;;;;;5073204;28;20172;-78
2021/03/11 07:10:43;;;;;;;4.82;2.15;;;11.20;79.10;;;;;;5073153;28;20072;-77
2021/03/11 07:13:09;;;;;;;5.25;2.00;;;11.20;79.10;;;;;;5072986;28;20051;-78
2021/03/11 07:15:39;;;;;;;5.22;2.67;;;11.30;79.10;;;;;;5072397;28;20132;-78
2021/03/11 07:18:10;;;;;;;4.78;2.10;;;11.30;78.90;;;;;;5072772;28;20143;-78
2021/03/11 07:20:37;;;;;;;5.53;2.15;;;11.30;79.00;;;;;;5073155;28;20056;-79
2021/03/11 07:23:10;;;;;;;3.83;2.08;;;11.30;79.20;;;;;;5075367;28;20106;-79
2021/03/11 07:25:39;;;;;;;4.50;2.30;;;11.40;78.70;;;;;;5072663;28;20080;-78
2021/03/11 07:28:09;;;;;;;3.63;1.90;;;11.30;78.90;;;;;;5072230;28;20553;-79
2021/03/11 07:30:49;;;;;;;4.05;2.10;;;11.40;78.60;;;;;;5072358;28;20533;-78
2021/03/11 07:33:16;;;;;;;4.55;2.33;;;11.40;78.20;;;;;;5072428;28;20647;-79
2021/03/11 07:35:45;;;;;;;5.40;2.00;;;11.40;78.60;;;;;;5072166;28;20549;-79
2021/03/11 07:38:16;;;;;;;5.13;2.35;;;11.40;77.90;;;;;;5071963;28;20079;-79
2021/03/11 07:40:46;;;;;;;5.25;2.30;;;11.50;77.90;;;;;;5082280;28;20083;-78
2021/03/11 07:43:14;;;;;;;4.40;2.08;;;11.50;77.20;;;;;;5076179;28;20113;-76
2021/03/11 07:45:42;;;;;;;4.13;1.98;;;11.50;77.40;;;;;;5072429;28;20091;-78
2021/03/11 07:48:10;;;;;;;6.30;2.20;;;11.60;77.20;;;;;;5072241;28;20132;-78
2021/03/11 07:50:37;;;;;;;4.40;2.15;;;11.60;77.00;;;;;;5072343;28;20052;-78
2021/03/11 07:53:05;;;;;;;3.47;1.70;;;11.70;76.20;;;;;;5070951;28;20082;-79
2021/03/11 07:55:32;;;;;;;5.70;2.08;;;11.70;76.00;;;;;;5072341;28;20048;-78
2021/03/11 07:58:03;;;;;;;4.85;1.88;;;11.80;76.10;;;;;;5072466;28;20194;-78
2021/03/11 08:00:31;;;;;;;3.63;1.70;;;11.80;75.60;;;;;;5072533;28;20102;-77
2021/03/11 08:03:04;;;;;;;4.80;2.25;;;11.80;74.80;;;;;;5074807;28;20517;-77
2021/03/11 08:05:32;;;;;;;4.75;1.90;;;11.80;74.60;;;;;;5073530;28;20563;-78
2021/03/11 08:08:25;;;;;;;5.32;2.20;;;11.90;74.10;;;;;;5079408;28;20076;-78
2021/03/11 08:10:54;;;;;;;4.60;2.03;;;12.00;74.40;;;;;;5072411;28;20062;-78
2021/03/11 08:13:35;;;;;;;4.20;1.80;;;12.00;73.90;;;;;;5081154;28;20067;-78
2021/03/11 08:16:23;;;;;;;4.05;1.80;;;12.00;74.10;;;;;;5080362;28;20049;-79
2021/03/11 08:18:51;;;;;;;4.10;1.60;;;12.10;74.00;;;;;;5073534;28;20071;-79
2021/03/11 08:21:45;;;;;;;3.42;1.55;;;12.10;73.80;;;;;;5072608;28;20059;-78
2021/03/11 08:24:47;;;;;;;3.95;1.60;;;12.30;73.60;;;;;;5077957;28;20163;-78
2021/03/11 08:27:39;;;;;;;3.38;1.25;;;12.30;73.80;;;;;;5082333;28;20056;-78
2021/03/11 08:30:30;;;;;;;3.38;1.40;;;12.40;73.90;;;;;;5076364;28;20048;-78
2021/03/11 08:32:57;;;;;;;2.90;1.25;;;12.50;73.30;;;;;;5081882;28;20517;-77
2021/03/11 08:35:37;;;;;;;2.47;1.10;;;12.60;73.40;;;;;;5081713;28;20173;-77
2021/03/11 08:38:40;;;;;;;4.63;1.42;;;12.60;73.20;;;;;;5073547;28;20174;-78
2021/03/11 08:41:09;;;;;;;2.80;1.20;;;12.80;73.00;;;;;;5071324;28;20127;-78
2021/03/11 08:43:52;;;;;;;2.28;1.25;;;12.80;72.90;;;;;;5072036;28;20139;-77
2021/03/11 08:46:20;;;;;;;3.25;1.20;;;12.70;72.80;;;;;;5081566;28;20112;-79
2021/03/11 08:48:50;;;;;;;4.22;1.20;;;12.80;72.90;;;;;;5081371;28;20056;-78
2021/03/11 08:51:39;;;;;;;2.92;1.10;;;12.90;72.80;;;;;;5081101;28;20053;-78
2021/03/11 08:54:08;;;;;;;3.83;1.10;;;13.00;72.30;;;;;;5065172;28;20549;-77
2021/03/11 08:56:40;;;;;;;2.97;1.15;;;13.10;72.30;;;;;;5076818;28;20125;-77
2021/03/11 08:59:10;;;;;;;3.22;1.30;;;13.20;71.80;;;;;;5074396;28;20143;-77
2021/03/11 09:01:40;;;;;;;2.97;1.20;;;13.30;71.60;;;;;;5078274;28;20076;-77
2021/03/11 09:04:37;;;;;;;3.25;1.23;;;13.30;71.40;;;;;;5071309;28;20388;-78
2021/03/11 09:07:05;;;;;;;2.50;1.17;;;13.40;71.20;;;;;;5070763;28;20476;-78
2021/03/11 09:09:35;;;;;;;3.50;1.25;;;13.50;71.40;;;;;;5070779;28;20394;-77
2021/03/11 09:12:06;;;;;;;3.38;1.30;;;13.50;71.30;;;;;;5070908;28;20117;-78
2021/03/11 09:14:34;;;;;;;3.00;1.10;;;13.70;71.40;;;;;;5055665;28;20142;-78
2021/03/11 09:17:10;;;;;;;2.25;1.00;;;13.70;71.20;;;;;;5050680;28;20135;-77
2021/03/11 09:19:41;;;;;;;3.05;1.00;;;13.80;71.20;;;;;;5051342;28;20071;-79
2021/03/11 09:22:21;;;;;;;2.95;1.45;;;13.80;71.30;;;;;;5058124;28;20123;-77
2021/03/11 09:25:08;;;;;;;3.65;1.30;;;13.90;71.30;;;;;;5054662;28;20563;-77
2021/03/11 09:27:38;;;;;;;2.72;1.08;;;13.90;71.50;;;;;;5070712;28;20048;-76
2021/03/11 09:30:09;;;;;;;2.35;1.02;;;14.00;71.30;;;;;;5070966;28;20072;-77
2021/03/11 09:32:37;;;;;;;4.97;1.00;;;14.10;70.90;;;;;;5071628;28;20083;-77
2021/03/11 09:35:07;;;;;;;3.83;1.00;;;14.20;70.70;;;;;;5071594;28;20045;-77
2021/03/11 09:37:50;;;;;;;2.67;1.10;;;14.30;70.70;;;;;;5072180;28;20056;-77
2021/03/11 09:40:34;;;;;;;2.78;0.80;;;14.20;70.40;;;;;;5071653;28;20052;-78
2021/03/11 09:43:06;;;;;;;2.63;0.90;;;14.40;69.90;;;;;;5071279;28;20052;-77
2021/03/11 09:45:39;;;;;;;2.22;1.00;;;14.30;70.40;;;;;;5070530;28;20136;-78
2021/03/11 09:48:09;;;;;;;1.73;0.63;;;14.30;70.40;;;;;;5070992;28;20052;-78
2021/03/11 09:50:38;;;;;;;2.40;0.82;;;14.40;69.60;;;;;;5070672;28;20045;-77
2021/03/11 09:53:05;;;;;;;2.42;1.00;;;14.60;69.00;;;;;;5070379;28;20076;-77
2021/03/11 09:55:33;;;;;;;2.05;0.80;;;14.70;69.30;;;;;;5069717;28;20048;-77
2021/03/11 09:57:59;;;;;;;3.17;1.13;;;14.70;69.20;;;;;;5070313;28;20139;-78
2021/03/11 10:00:26;;;;;;;5.88;2.40;;;14.90;68.10;;;;;;5070753;28;20128;-76
2021/03/11 10:02:54;;;;;;;2.50;0.80;;;14.90;68.00;;;;;;5070079;28;20399;-76
2021/03/11 10:05:22;;;;;;;2.25;1.10;;;14.90;68.10;;;;;;5070951;28;20174;-77
2021/03/11 10:07:56;;;;;;;2.08;0.73;;;15.00;67.60;;;;;;5078030;28;20048;-77
2021/03/11 10:10:28;;;;;;;2.22;0.90;;;15.00;67.90;;;;;;5076310;28;20518;-76
2021/03/11 10:12:54;;;;;;;2.05;0.73;;;15.10;67.50;;;;;;5070789;28;20041;-77
2021/03/11 10:15:21;;;;;;;1.95;0.80;;;15.10;67.60;;;;;;5070523;28;20052;-77
2021/03/11 10:17:47;;;;;;;1.80;0.70;;;15.00;67.60;;;;;;5072538;28;20124;-75
2021/03/11 10:20:26;;;;;;;2.72;0.82;;;15.00;67.80;;;;;;5074115;28;20135;-76
2021/03/11 10:23:13;;;;;;;1.48;0.70;;;15.00;68.00;;;;;;5073687;28;20044;-77
2021/03/11 10:25:41;;;;;;;1.70;0.70;;;14.80;68.40;;;;;;5076917;28;20131;-77
2021/03/11 10:28:07;;;;;;;1.95;0.80;;;14.90;68.50;;;;;;5082227;28;20071;-78
2021/03/11 10:30:37;;;;;;;1.65;0.70;;;14.80;68.80;;;;;;5080283;28;20049;-76
2021/03/11 10:33:06;;;;;;;2.20;1.08;;;14.80;69.00;;;;;;5080518;28;20109;-77
2021/03/11 10:35:34;;;;;;;2.22;0.90;;;14.90;69.50;;;;;;5080471;28;20110;-76
2021/03/11 10:38:18;;;;;;;2.70;0.90;;;14.90;69.70;;;;;;5080093;28;20098;-76
2021/03/11 10:40:46;;;;;;;1.83;0.70;;;14.90;70.00;;;;;;5079827;28;20049;-78
2021/03/11 10:43:19;;;;;;;1.83;0.70;;;14.90;70.30;;;;;;5077757;28;20494;-77
2021/03/11 10:45:46;;;;;;;1.80;0.70;;;14.90;70.90;;;;;;5078797;28;20087;-77
2021/03/11 10:48:13;;;;;;;1.88;0.70;;;15.00;70.60;;;;;;5079125;28;20106;-76
2021/03/11 10:50:41;;;;;;;2.55;0.90;;;14.90;71.00;;;;;;5080769;28;20112;-78
2021/03/11 10:53:09;;;;;;;1.52;0.70;;;15.10;70.80;;;;;;5074554;28;20140;-78
2021/03/11 10:55:38;;;;;;;1.65;0.60;;;15.10;70.60;;;;;;5074584;28;20072;-78
2021/03/11 10:58:06;;;;;;;2.90;0.70;;;15.10;71.10;;;;;;5073437;28;20135;-78
2021/03/11 11:00:35;;;;;;;2.05;0.70;;;15.10;71.40;;;;;;5073484;28;20049;-78
2021/03/11 11:03:05;;;;;;;1.98;0.68;;;15.20;71.70;;;;;;5073212;28;20124;-79
2021/03/11 11:05:33;;;;;;;2.65;0.65;;;15.20;71.10;;;;;;5072747;28;20083;-78
2021/03/11 11:08:00;;;;;;;2.92;0.77;;;15.30;71.50;;;;;;5072602;28;20053;-79
2021/03/11 11:10:30;;;;;;;3.03;0.70;;;15.20;71.50;;;;;;5073223;28;20150;-78
2021/03/11 11:12:56;;;;;;;2.05;0.90;;;15.30;71.50;;;;;;5073286;28;20045;-78
2021/03/11 11:15:26;;;;;;;3.10;0.73;;;15.20;72.10;;;;;;5072949;28;20087;-77
2021/03/11 11:17:53;;;;;;;1.48;0.60;;;15.20;72.30;;;;;;5072906;28;20080;-78
2021/03/11 11:20:20;;;;;;;2.75;0.80;;;15.30;72.40;;;;;;5072370;28;20167;-78
2021/03/11 11:22:46;;;;;;;2.33;0.65;;;15.20;72.80;;;;;;5072121;28;20132;-78
2021/03/11 11:25:13;;;;;;;2.08;0.70;;;15.20;72.80;;;;;;5072903;28;20075;-78
2021/03/11 11:27:40;;;;;;;1.73;0.70;;;15.20;73.60;;;;;;5072453;28;20135;-79
2021/03/11 11:30:11;;;;;;;2.47;0.98;;;15.20;74.00;;;;;;5072541;28;20084;-77
2021/03/11 11:32:38;;;;;;;2.25;0.90;;;15.20;74.50;;;;;;5072712;28;20087;-78
2021/03/11 11:35:07;;;;;;;3.00;0.80;;;15.10;75.00;;;;;;5074087;28;20127;-78
2021/03/11 11:37:33;;;;;;;2.50;0.77;;;15.10;76.40;;;;;;5072702;28;20140;-78
2021/03/11 11:40:00;;;;;;;2.33;0.70;;;15.00;77.60;;;;;;5072537;28;20083;-76
2021/03/11 11:42:27;;;;;;;1.77;0.60;;;14.90;79.40;;;;;;5072468;28;20482;-77
2021/03/11 11:44:54;;;;;;;1.73;0.63;;;14.90;81.60;;;;;;5072224;28;20143;-77
2021/03/11 11:47:21;;;;;;;1.25;0.50;;;14.80;83.20;;;;;;5072546;28;20131;-77
2021/03/11 11:49:48;;;;;;;1.67;0.60;;;14.80;85.00;;;;;;5071618;28;20135;-78
2021/03/11 11:52:15;;;;;;;1.65;0.63;;;14.70;86.60;;;;;;5071923;28;20144;-79
2021/03/11 11:54:41;;;;;;;1.80;0.80;;;14.50;89.00;;;;;;5072210;28;20053;-79
2021/03/11 11:57:08;;;;;;;1.50;0.60;;;14.40;90.70;;;;;;5072152;28;20088;-78
2021/03/11 11:59:35;;;;;;;2.97;0.60;;;14.40;91.30;;;;;;5072083;28;20120;-78
2021/03/11 12:02:02;;;;;;;1.25;0.60;;;14.30;91.90;;;;;;5071988;28;20139;-77
2021/03/11 12:04:30;;;;;;;1.60;0.70;;;14.20;92.50;;;;;;5071566;28;20091;-77
2021/03/11 12:06:58;;;;;;;2.25;0.77;;;14.20;93.30;;;;;;5071685;28;20049;-77
2021/03/11 12:09:25;;;;;;;1.98;0.70;;;14.10;93.90;;;;;;5071710;28;20561;-78
2021/03/11 12:11:51;;;;;;;1.92;0.80;;;14.00;94.40;;;;;;5071909;28;20143;-76
2021/03/11 12:14:18;;;;;;;4.20;0.80;;;14.00;94.60;;;;;;5072100;28;20147;-76
2021/03/11 12:16:45;;;;;;;2.42;0.75;;;14.00;94.80;;;;;;5071731;28;20056;-78
2021/03/11 12:19:12;;;;;;;3.47;1.00;;;14.00;94.60;;;;;;5071178;28;20040;-77
2021/03/11 12:21:39;;;;;;;1.67;0.70;;;13.90;95.50;;;;;;5071525;28;20561;-77
2021/03/11 12:24:07;;;;;;;2.60;0.80;;;13.90;95.70;;;;;;5071348;28;20049;-76
2021/03/11 12:26:34;;;;;;;1.52;0.60;;;13.90;95.40;;;;;;5071918;28;20135;-77
2021/03/11 12:29:01;;;;;;;1.85;0.65;;;13.90;95.40;;;;;;5071312;28;20143;-77
2021/03/11 12:31:28;;;;;;;1.83;0.70;;;13.90;95.70;;;;;;5071565;28;20139;-79
2021/03/11 12:33:56;;;;;;;2.00;0.70;;;13.80;96.10;;;;;;5070993;28;20299;-76
2021/03/11 12:36:22;;;;;;;2.63;0.77;;;13.90;96.00;;;;;;5071402;28;20052;-78
2021/03/11 12:38:51;;;;;;;3.08;0.90;;;13.90;96.20;;;;;;5071165;28;20048;-77
2021/03/11 12:41:22;;;;;;;2.40;1.00;;;14.00;95.90;;;;;;5071210;28;20056;-77
2021/03/11 12:43:49;;;;;;;1.65;0.70;;;14.10;95.60;;;;;;5074150;28;20083;-76
2021/03/11 12:46:16;;;;;;;2.30;0.90;;;14.10;95.60;;;;;;5083044;28;20052;-75
2021/03/11 12:48:42;;;;;;;1.80;0.80;;;14.20;95.20;;;;;;5077466;28;20486;-75
2021/03/11 12:51:09;;;;;;;2.17;0.70;;;14.20;95.40;;;;;;5072355;28;20421;-77
2021/03/11 12:53:36;;;;;;;1.60;0.80;;;14.20;95.30;;;;;;5070908;28;20139;-78
2021/03/11 12:56:03;;;;;;;2.08;0.80;;;14.20;95.30;;;;;;5070974;28;20139;-77
2021/03/11 12:58:31;;;;;;;1.77;0.70;;;14.20;95.40;;;;;;5070787;28;20075;-77
2021/03/11 13:00:57;;;;;;;1.95;0.70;;;14.20;95.50;;;;;;5071261;28;20131;-77